KBRL/BRL METAR and TAF weather

Enter ICAO airport designator
Station Type Date Time Source
KBRL METAR 2019/12/13 13:53 UTC NOAA

KBRL 131353Z AUTO 35004KT 3SM BR CLR M03/M04 A2995 RMK AO2 SLP149 T10281044


Station Type Date Time Source
KBRL Decoded METAR 2019/12/13 13:53 UTC NOAA

BURLINGTON REGIONAL AIRPORT, IA, United States (KBRL) 40-46N 91-08W 211M
Dec 13, 2019 - 08:53 AM EST / 2019.12.13 1353 UTC
Wind: from the N (350 degrees) at 5 MPH (4 KT):0
Visibility: 3 mile(s):0
Sky conditions: clear
Weather: mist
Temperature: 27.0 F (-2.8 C)
Windchill: 21 F (-6 C):1
Dew Point: 24.1 F (-4.4 C)
Relative Humidity: 88%
Pressure (altimeter): 29.95 in. Hg (1014 hPa)
ob: KBRL 131353Z AUTO 35004KT 3SM BR CLR M03/M04 A2995 RMK AO2 SLP149 T10281044
cycle: 14

Station Type Date Time Source
KBRL TAF 2019/12/13 14:06 UTC NOAA

KBRL 131402Z 1314/1412 36004KT 3SM BR OVC120
FM131500 03004KT 2SM BR OVC002
TEMPO 1315/1317 1/2SM FG
FM131800 16005KT P6SM OVC250
FM140300 10005KT P6SM OVC025
FM140600 VRB02KT 6SM -RA OVC010

Example: see airport list